createdAt,value
2022-08-07T00:00:57.727Z,65.43
2022-08-07T00:06:01.286Z,67.25
2022-08-07T00:11:06.360Z,67.90
2022-08-07T00:16:08.719Z,70.57
2022-08-07T00:21:57.311Z,67.20
2022-08-07T00:26:58.942Z,69.28
2022-08-07T00:32:03.298Z,72.18
2022-08-07T00:37:07.334Z,69.81
2022-08-07T00:42:09.710Z,70.18
2022-08-07T00:47:15.684Z,73.28
2022-08-07T00:52:33.232Z,69.83
2022-08-07T00:57:35.130Z,74.39
2022-08-07T01:02:40.217Z,71.87
2022-08-07T01:07:41.827Z,72.06
2022-08-07T01:12:53.756Z,74.18
2022-08-07T01:17:56.325Z,73.25
2022-08-07T01:23:12.061Z,69.98
2022-08-07T01:28:14.639Z,70.90
2022-08-07T01:33:16.810Z,71.13
2022-08-07T01:38:24.913Z,71.52
2022-08-07T01:43:34.692Z,72.15
2022-08-07T01:48:42.148Z,73.93
2022-08-07T01:54:06.267Z,69.99
2022-08-07T01:59:21.645Z,74.90
2022-08-07T02:04:38.213Z,76.17
2022-08-07T02:09:52.746Z,72.07
2022-08-07T02:14:57.076Z,74.77
2022-08-07T02:20:04.374Z,74.71
2022-08-07T02:25:17.285Z,74.51
2022-08-07T02:30:19.710Z,71.38
2022-08-07T02:36:28.645Z,74.96
2022-08-07T02:40:46.668Z,77.50
2022-08-07T02:46:00.320Z,76.44
2022-08-07T02:51:28.968Z,75.46
2022-08-07T03:02:55.525Z,76.71
2022-08-07T03:08:05.312Z,75.33
2022-08-07T03:13:10.227Z,72.23
2022-08-07T03:18:17.618Z,72.59
2022-08-07T03:23:22.005Z,77.08
2022-08-07T03:28:39.580Z,78.58
2022-08-07T03:33:43.088Z,79.80
2022-08-07T03:38:46.498Z,79.99
2022-08-07T03:43:57.275Z,78.71
2022-08-07T03:49:02.994Z,78.99
2022-08-07T03:54:36.064Z,81.37
2022-08-07T03:59:27.603Z,79.93
2022-08-07T04:04:29.130Z,76.84
2022-08-07T04:09:45.143Z,79.21
2022-08-07T04:14:53.121Z,78.28
2022-08-07T04:19:55.245Z,76.73
2022-08-07T04:24:58.769Z,76.53
2022-08-07T04:30:04.895Z,75.43
2022-08-07T04:35:12.755Z,81.41
2022-08-07T04:40:14.662Z,82.33
2022-08-07T04:45:20.981Z,78.16
2022-08-07T04:50:45.127Z,81.67
2022-08-07T04:58:12.967Z,80.63
2022-08-07T05:01:32.291Z,75.53
2022-08-07T05:06:43.574Z,81.39
2022-08-07T05:11:56.892Z,78.41
2022-08-07T05:17:05.877Z,74.17
2022-08-07T05:22:19.054Z,77.25
2022-08-07T05:28:16.928Z,80.55
2022-08-07T05:32:54.515Z,78.55
2022-08-07T05:38:08.340Z,79.00
2022-08-07T05:43:11.626Z,78.62
2022-08-07T05:48:15.235Z,71.40
2022-08-07T05:54:12.227Z,74.04
2022-08-07T05:58:40.454Z,75.16
2022-08-07T06:03:57.270Z,72.39
2022-08-07T06:09:04.586Z,71.29
2022-08-07T06:14:12.182Z,69.55
2022-08-07T06:19:18.236Z,70.20
2022-08-07T06:24:57.930Z,70.45
2022-08-07T06:30:01.390Z,68.71
2022-08-07T06:35:10.496Z,69.38
2022-08-07T06:40:21.356Z,67.56
2022-08-07T06:45:24.861Z,66.67
2022-08-07T06:50:27.414Z,65.82
2022-08-07T06:56:00.451Z,65.83
2022-08-07T07:00:56.088Z,64.83
2022-08-07T07:06:03.731Z,64.08
2022-08-07T07:11:14.043Z,64.20
2022-08-07T07:16:33.461Z,63.00
2022-08-07T07:22:05.309Z,61.43
2022-08-07T07:27:04.383Z,61.42
2022-08-07T07:32:12.236Z,60.68
2022-08-07T07:37:44.406Z,61.15
2022-08-07T07:42:40.027Z,60.38
2022-08-07T07:47:52.502Z,60.16
2022-08-07T07:52:56.395Z,57.58
2022-08-07T07:57:58.696Z,57.91
2022-08-07T08:03:07.918Z,56.48
2022-08-07T08:08:32.356Z,56.96
2022-08-07T08:13:54.995Z,52.95
2022-08-07T08:19:00.409Z,56.55
2022-08-07T08:24:36.242Z,53.93
2022-08-07T08:29:55.862Z,51.02
2022-08-07T08:34:59.626Z,48.72
2022-08-07T08:40:02.887Z,52.49
2022-08-07T08:45:18.425Z,47.54
2022-08-07T08:50:39.357Z,49.24
2022-08-07T08:55:54.891Z,43.03
2022-08-07T09:01:46.549Z,48.15
2022-08-07T09:07:03.344Z,46.04
2022-08-07T09:12:31.011Z,45.90
2022-08-07T09:18:36.741Z,42.43
2022-08-07T09:24:30.794Z,41.50
2022-08-07T09:30:03.321Z,46.28
2022-08-07T09:36:00.941Z,41.58
2022-08-07T09:41:58.677Z,40.89
2022-08-07T09:47:50.786Z,42.05
2022-08-07T09:52:39.923Z,40.20
2022-08-07T09:57:50.118Z,41.74
2022-08-07T10:04:06.536Z,47.49
2022-08-07T10:08:44.493Z,45.66
2022-08-07T10:14:30.301Z,45.59
2022-08-07T10:19:59.015Z,47.95
2022-08-07T10:25:07.604Z,39.63
2022-08-07T10:30:18.544Z,43.12
2022-08-07T10:36:12.475Z,44.69
2022-08-07T10:41:47.151Z,47.18
2022-08-07T10:47:19.347Z,43.97
2022-08-07T10:52:40.160Z,42.40
2022-08-07T10:58:02.669Z,41.63
2022-08-07T11:03:55.278Z,44.61
2022-08-07T11:09:12.628Z,41.56
2022-08-07T11:14:43.941Z,42.87
2022-08-07T11:20:00.130Z,43.01
2022-08-07T11:25:25.715Z,40.37
2022-08-07T11:30:41.764Z,42.38
2022-08-07T11:36:11.785Z,42.94
2022-08-07T11:41:28.400Z,45.25
2022-08-07T11:46:48.787Z,40.55
2022-08-07T11:52:07.421Z,40.16
2022-08-07T11:57:59.665Z,43.33
2022-08-07T12:03:45.406Z,39.36
2022-08-07T12:08:55.865Z,39.82
2022-08-07T12:14:08.463Z,43.48
2022-08-07T12:19:35.618Z,44.35
2022-08-07T12:26:21.497Z,38.37
2022-08-07T12:30:46.797Z,39.06
2022-08-07T12:35:58.035Z,43.25
2022-08-07T12:41:02.655Z,44.42
2022-08-07T12:46:26.642Z,43.68
2022-08-07T12:52:12.154Z,42.99
2022-08-07T12:57:11.274Z,41.70
2022-08-07T13:02:49.486Z,40.43
2022-08-07T13:08:12.002Z,43.84
2022-08-07T13:13:47.408Z,44.02
2022-08-07T13:18:49.118Z,42.63
2022-08-07T13:24:11.391Z,42.68
2022-08-07T13:29:51.221Z,40.05
2022-08-07T13:35:15.845Z,39.44
2022-08-07T13:40:36.459Z,40.26
2022-08-07T13:46:11.455Z,38.40
2022-08-07T13:51:27.181Z,41.46
2022-08-07T13:56:36.052Z,42.37
2022-08-07T14:02:03.699Z,38.68
2022-08-07T14:07:09.638Z,39.03
2022-08-07T14:12:27.447Z,41.62
2022-08-07T14:18:16.143Z,43.63
2022-08-07T14:23:12.244Z,39.63
2022-08-07T14:28:17.525Z,41.88
2022-08-07T14:33:23.382Z,42.91
2022-08-07T14:38:31.322Z,41.15
2022-08-07T14:43:58.778Z,39.56
2022-08-07T14:49:56.018Z,41.16
2022-08-07T14:54:31.032Z,43.01
2022-08-07T15:00:03.625Z,41.16
2022-08-07T15:15:52.397Z,41.04
2022-08-07T15:20:59.170Z,40.73
2022-08-07T15:26:09.292Z,40.89
2022-08-07T15:32:00.482Z,41.31
2022-08-07T15:42:46.534Z,41.95
2022-08-07T15:53:02.498Z,39.82
2022-08-07T15:58:09.425Z,43.14
2022-08-07T16:03:46.436Z,40.58
2022-08-07T16:08:47.724Z,41.89
2022-08-07T16:14:02.694Z,41.77
2022-08-07T16:19:42.812Z,42.44
2022-08-07T16:24:56.283Z,43.52
2022-08-07T16:30:31.226Z,41.54
2022-08-07T16:35:52.003Z,41.67
2022-08-07T16:41:23.211Z,42.75
2022-08-07T16:47:05.716Z,41.19
2022-08-07T16:52:51.397Z,41.15
2022-08-07T16:58:01.812Z,40.80
2022-08-07T17:03:18.679Z,42.12
2022-08-07T17:09:09.767Z,41.24
2022-08-07T17:14:19.124Z,41.88
2022-08-07T17:19:23.984Z,41.33
2022-08-07T17:25:08.255Z,42.48
2022-08-07T17:30:19.570Z,41.90
2022-08-07T17:35:54.976Z,42.23
2022-08-07T17:42:02.295Z,40.70
2022-08-07T17:46:44.175Z,41.06
2022-08-07T17:52:01.185Z,41.76
2022-08-07T17:57:18.670Z,41.57
2022-08-07T18:02:41.241Z,41.97
2022-08-07T18:08:23.919Z,42.66
2022-08-07T18:13:50.147Z,43.14
2022-08-07T18:21:08.596Z,43.07
2022-08-07T18:24:34.392Z,43.04
2022-08-07T18:30:08.032Z,43.16
2022-08-07T18:35:51.529Z,44.01
2022-08-07T18:41:44.997Z,44.10
2022-08-07T18:47:00.053Z,44.31
2022-08-07T18:52:54.392Z,44.64
2022-08-07T18:58:19.608Z,44.80
2022-08-07T19:03:42.685Z,45.70
2022-08-07T19:09:09.424Z,45.57
2022-08-07T19:14:39.662Z,45.86
2022-08-07T19:19:57.375Z,46.10
2022-08-07T19:25:05.713Z,46.11
2022-08-07T19:31:06.450Z,46.73
2022-08-07T19:35:34.135Z,46.87
2022-08-07T19:40:49.319Z,47.46
2022-08-07T19:46:08.098Z,48.86
2022-08-07T19:51:19.182Z,48.12
2022-08-07T19:58:01.915Z,48.44
2022-08-07T20:01:56.122Z,47.84
2022-08-07T20:07:00.366Z,49.29
2022-08-07T20:12:31.833Z,48.91
2022-08-07T20:17:26.552Z,49.29
2022-08-07T20:22:33.870Z,49.61
2022-08-07T20:27:46.220Z,50.71
2022-08-07T20:32:54.649Z,52.01
2022-08-07T20:37:58.864Z,51.94
2022-08-07T20:43:03.801Z,52.49
2022-08-07T20:48:30.242Z,50.77
2022-08-07T20:54:02.140Z,54.04
2022-08-07T20:59:05.150Z,53.30
2022-08-07T21:04:21.963Z,54.89
2022-08-07T21:09:51.589Z,53.63
2022-08-07T21:14:56.669Z,54.68
2022-08-07T21:20:04.389Z,53.90
2022-08-07T21:25:19.436Z,56.15
2022-08-07T21:30:25.204Z,54.75
2022-08-07T21:36:05.907Z,56.82
2022-08-07T21:41:10.913Z,54.95
2022-08-07T21:46:31.261Z,55.03
2022-08-07T21:51:51.216Z,56.02
2022-08-07T21:57:40.027Z,55.42
2022-08-07T22:02:47.447Z,57.79
2022-08-07T22:07:59.602Z,60.20
2022-08-07T22:13:05.696Z,57.70
2022-08-07T22:18:24.184Z,58.15
2022-08-07T22:23:47.338Z,59.09
2022-08-07T22:28:55.006Z,56.51
2022-08-07T22:34:07.715Z,58.77
2022-08-07T22:39:52.418Z,58.68
2022-08-07T22:44:59.989Z,56.29
2022-08-07T22:50:29.002Z,57.46
2022-08-07T22:55:56.828Z,59.59
2022-08-07T23:01:11.513Z,59.07
2022-08-07T23:06:39.689Z,59.24
2022-08-07T23:12:20.909Z,59.29
2022-08-07T23:17:46.610Z,59.14
2022-08-07T23:24:06.154Z,60.76
2022-08-07T23:29:42.665Z,59.43
2022-08-07T23:34:49.675Z,60.00
2022-08-07T23:40:08.547Z,58.43
2022-08-07T23:46:03.628Z,60.95
2022-08-07T23:53:00.394Z,61.52
2022-08-07T23:57:04.956Z,60.59
